»·PEaware :: SWA711 KPDX-KBZN

SWA711 :: KPDX-KBZN

FLIGHT INFORMATION

Flight Status: Arrived
Operator:
Southwest Airlines
More flights by this operator :: More flights under this callsign
Pilot: Anonymous 15267 (15267)
Aircraft: BOEING 737-800
(B738)
More flights by this aircraft type
Origin: KPDX Portland Intl
United States
Destination: KBZN Gallatin
United States
More flights between these airports :: More routes between these airports
Route: LAVAA6 PDT WEDAK HEBIV THESE
File this flight plan on PilotEdge
Remarks: RMK / SIMBRIEF
Altitude:
(Current/Filed)
37,000ft
Speed:
(Current/Filed)
438kts
Departed: 15-Jul-20 01:39 PM
Arrived: 15-Jul-20 02:51 PM
Distance/Time
Traveled:
479nm/1:12
Distance/Time
To Go:
Arrived

Flight Plot

Page will automatically refresh every two minutes.


Map Options




Map Legend


Flown Route
Filed Route
Departure Airport
Arrival Airport
Navaid (VOR, NDB)
Fix

Horizontal Profiles

Position Reports

Time Latitude Longitude Heading Altitude Ground
Speed
15-Jul-20 13:10 45.589444 -122.596365 209 38ft 0kts
15-Jul-20 13:11 45.589444 -122.596365 209 38ft 0kts
15-Jul-20 13:12 45.589444 -122.596365 209 38ft 0kts
15-Jul-20 13:13 45.589444 -122.596365 209 38ft 0kts
15-Jul-20 13:14 45.589444 -122.596365 209 38ft 0kts
15-Jul-20 13:15 45.589444 -122.596365 209 38ft 0kts
15-Jul-20 13:16 45.589444 -122.596365 209 38ft 0kts
15-Jul-20 13:17 45.589444 -122.596365 209 38ft 0kts
15-Jul-20 13:18 45.589444 -122.596365 209 38ft 0kts
15-Jul-20 13:19 45.589444 -122.596365 209 38ft 0kts
15-Jul-20 13:20 45.589444 -122.596365 209 38ft 0kts
15-Jul-20 13:21 45.589444 -122.596365 209 38ft 0kts
15-Jul-20 13:22 45.589444 -122.596365 209 38ft 0kts
15-Jul-20 13:23 45.589444 -122.596365 209 38ft 0kts
15-Jul-20 13:24 45.589444 -122.596365 209 38ft 0kts
15-Jul-20 13:25 45.589444 -122.596365 209 38ft 0kts
15-Jul-20 13:26 45.589444 -122.596365 209 38ft 0kts
15-Jul-20 13:27 45.589444 -122.596365 209 38ft 0kts
15-Jul-20 13:28 45.589894 -122.595764 254 38ft 2kts
15-Jul-20 13:29 45.589888 -122.595451 298 38ft 0kts
15-Jul-20 13:30 45.589888 -122.595451 298 38ft 0kts
15-Jul-20 13:31 45.589888 -122.595451 298 38ft 0kts
15-Jul-20 13:32 45.589888 -122.595451 298 38ft 0kts
15-Jul-20 13:33 45.590199 -122.596223 296 38ft 1kts
15-Jul-20 13:34 45.591671 -122.599271 315 38ft 9kts
15-Jul-20 13:35 45.593493 -122.598808 41 38ft 6kts
15-Jul-20 13:36 45.594020 -122.598068 45 38ft 0kts
15-Jul-20 13:37 45.594187 -122.597848 42 38ft 0kts
15-Jul-20 13:38 45.594239 -122.594130 118 38ft 51kts
15-Jul-20 13:39 45.574778 -122.538801 102 2316ft 185kts
15-Jul-20 13:40 45.564147 -122.447668 103 4677ft 270kts
15-Jul-20 13:41 45.547108 -122.338836 81 7664ft 286kts
15-Jul-20 13:42 45.592193 -122.246291 43 11045ft 303kts
15-Jul-20 13:43 45.652735 -122.145503 56 13438ft 354kts
15-Jul-20 13:44 45.695976 -122.014428 63 14971ft 369kts
15-Jul-20 13:45 45.738071 -121.880699 67 14947ft 369kts
15-Jul-20 13:46 45.747482 -121.732103 90 16513ft 384kts
15-Jul-20 13:47 45.745005 -121.575518 89 19091ft 401kts
15-Jul-20 13:48 45.743167 -121.413200 89 21519ft 415kts
15-Jul-20 13:49 45.742233 -121.245545 89 23658ft 429kts
15-Jul-20 13:50 45.740775 -121.072128 90 25646ft 440kts
15-Jul-20 13:51 45.738770 -120.894673 90 27445ft 451kts
15-Jul-20 14:11 45.791315 -117.166427 84 37128ft 473kts
15-Jul-20 14:14 45.815369 -116.598895 84 37170ft 476kts
15-Jul-20 14:15 45.822777 -116.409008 84 37177ft 478kts
15-Jul-20 14:16 45.829914 -116.218018 84 37185ft 478kts
15-Jul-20 14:17 45.836708 -116.027763 85 37183ft 479kts
15-Jul-20 14:18 45.843206 -115.836830 85 37167ft 479kts
15-Jul-20 14:19 45.849372 -115.646332 85 37140ft 479kts
15-Jul-20 14:20 45.855241 -115.455132 85 37100ft 479kts
15-Jul-20 14:21 45.860779 -115.264316 85 37095ft 479kts
15-Jul-20 14:22 45.866027 -115.072422 85 37106ft 481kts
15-Jul-20 14:23 45.870952 -114.880680 86 37118ft 482kts
15-Jul-20 14:24 45.875565 -114.688552 86 37129ft 482kts
15-Jul-20 14:25 45.880231 -114.495927 85 37138ft 483kts
15-Jul-20 14:29 45.896030 -113.724782 86 35731ft 482kts
15-Jul-20 14:30 45.900256 -113.534311 85 33631ft 470kts
15-Jul-20 14:31 45.904587 -113.349536 85 31773ft 456kts
15-Jul-20 14:32 45.908037 -113.170088 85 30001ft 443kts
15-Jul-20 14:33 45.911066 -112.995268 86 28255ft 432kts
15-Jul-20 14:35 45.913748 -112.825049 86 26519ft 422kts
15-Jul-20 14:36 45.916135 -112.657862 86 24802ft 414kts
15-Jul-20 14:37 45.918234 -112.494507 87 23093ft 406kts
15-Jul-20 14:38 45.920065 -112.334080 87 21381ft 398kts
15-Jul-20 14:39 45.921767 -112.176342 87 19679ft 390kts
15-Jul-20 14:40 45.923441 -112.021045 88 17836ft 386kts
15-Jul-20 14:41 45.924281 -111.868547 88 16182ft 377kts
15-Jul-20 14:42 45.925667 -111.723525 83 14700ft 350kts
15-Jul-20 14:43 45.944905 -111.590801 64 13087ft 325kts
15-Jul-20 14:44 45.994126 -111.485737 51 11322ft 313kts
15-Jul-20 14:45 46.027446 -111.381418 104 10434ft 275kts
15-Jul-20 14:46 45.977322 -111.318307 166 9388ft 235kts
15-Jul-20 14:47 45.915994 -111.306388 177 7715ft 210kts
15-Jul-20 14:48 45.868088 -111.278873 141 6509ft 175kts
15-Jul-20 14:49 45.837340 -111.233229 144 5843ft 158kts
15-Jul-20 14:50 45.803966 -111.188391 140 4933ft 160kts
15-Jul-20 14:51 45.776418 -111.150210 133 4479ft 29kts
15-Jul-20 14:52 45.774441 -111.151568 310 4479ft 9kts
15-Jul-20 14:52 45.775982 -111.153763 317 4479ft 17kts
15-Jul-20 14:54 45.778228 -111.158547 307 4479ft 7kts
15-Jul-20 14:54 45.778558 -111.159929 233 4479ft 1kts
15-Jul-20 14:55 45.778528 -111.159989 234 4479ft 0kts
15-Jul-20 14:57 45.778528 -111.159989 234 4479ft 0kts
15-Jul-20 14:57 45.778528 -111.159989 234 4479ft 0kts

Navigation Log

Ident Type
Flight plan parsing failed, navigation log unavailable